createdAt,value
2023-01-29T10:44:37.827Z,3.09
2023-01-29T10:47:24.281Z,3.15
2023-01-29T10:50:04.779Z,3.33
2023-01-29T10:52:44.635Z,3.56
2023-01-29T10:55:21.620Z,3.47
2023-01-29T10:58:05.553Z,3.38
2023-01-29T11:00:39.659Z,3.48
2023-01-29T11:03:27.823Z,3.52
2023-01-29T11:06:14.483Z,3.52
2023-01-29T11:08:42.327Z,3.68
2023-01-29T11:11:19.493Z,3.84
2023-01-29T11:14:07.379Z,3.96
2023-01-29T11:17:00.601Z,4.01
2023-01-29T11:19:40.695Z,3.87
2023-01-29T11:22:20.234Z,3.95
2023-01-29T11:25:18.229Z,4.13
2023-01-29T11:27:56.542Z,4.19
2023-01-29T11:30:34.307Z,4.23
2023-01-29T11:33:20.526Z,4.22
2023-01-29T11:35:48.696Z,4.22
2023-01-29T11:38:16.562Z,4.24
2023-01-29T11:40:45.082Z,4.31
2023-01-29T11:43:31.479Z,4.37
2023-01-29T11:46:24.513Z,4.29
2023-01-29T11:49:02.443Z,4.15
2023-01-29T11:51:35.176Z,4.13
2023-01-29T11:54:07.746Z,4.15
2023-01-29T11:56:44.703Z,4.22
2023-01-29T11:59:50.330Z,4.00
2023-01-29T12:02:37.851Z,4.00
2023-01-29T12:08:24.539Z,4.07
2023-01-29T12:11:24.776Z,3.98
2023-01-29T12:17:04.696Z,3.83
2023-01-29T12:20:09.863Z,3.83
2023-01-29T12:22:48.133Z,3.79
2023-01-29T12:25:55.284Z,3.75
2023-01-29T12:28:34.581Z,3.65
2023-01-29T12:31:08.825Z,3.69
2023-01-29T12:33:44.068Z,3.66
2023-01-29T12:36:21.869Z,3.64
2023-01-29T12:38:50.102Z,3.70
2023-01-29T12:41:33.222Z,3.60
2023-01-29T12:44:21.235Z,3.64
2023-01-29T12:47:23.167Z,3.62
2023-01-29T12:50:04.067Z,3.63
2023-01-29T12:53:06.553Z,3.63
2023-01-29T12:55:43.248Z,3.36
2023-01-29T12:58:52.521Z,3.37
2023-01-29T13:01:42.656Z,3.38
2023-01-29T13:04:19.561Z,3.48
2023-01-29T13:06:59.603Z,3.55
2023-01-29T13:09:33.527Z,3.60
2023-01-29T13:12:12.755Z,3.48
2023-01-29T13:15:05.828Z,3.55
2023-01-29T13:17:38.252Z,3.41
2023-01-29T13:20:19.001Z,3.48
2023-01-29T13:22:49.411Z,3.50
2023-01-29T13:25:20.486Z,3.48
2023-01-29T13:34:33.406Z,3.67
2023-01-29T13:37:43.387Z,3.50
2023-01-29T13:40:40.605Z,3.49
2023-01-29T13:43:23.504Z,3.56
2023-01-29T13:45:54.545Z,3.57
2023-01-29T13:48:43.873Z,3.63
2023-01-29T13:51:33.721Z,3.54
2023-01-29T13:54:17.331Z,3.44
2023-01-29T13:57:01.166Z,3.34
2023-01-29T13:59:53.652Z,3.52
2023-01-29T14:02:30.474Z,3.66
2023-01-29T14:05:37.361Z,3.64
2023-01-29T14:08:35.591Z,3.29
2023-01-29T14:11:29.673Z,3.29
2023-01-29T14:13:59.120Z,3.05
2023-01-29T14:16:35.738Z,3.08
2023-01-29T14:19:06.282Z,3.04
2023-01-29T14:21:43.882Z,3.10
2023-01-29T14:24:29.489Z,3.06
2023-01-29T14:27:36.065Z,3.08
2023-01-29T14:30:15.608Z,3.00
2023-01-29T14:32:48.259Z,3.03
2023-01-29T14:38:26.032Z,3.11
2023-01-29T14:44:45.791Z,3.08
2023-01-29T14:47:43.296Z,3.06
2023-01-29T14:50:52.092Z,3.00
2023-01-29T14:53:58.008Z,2.99
2023-01-29T14:56:37.488Z,3.04
2023-01-29T14:59:31.481Z,2.90
2023-01-29T15:02:35.284Z,2.90
2023-01-29T15:05:11.825Z,2.87
2023-01-29T15:07:47.836Z,2.94
2023-01-29T15:10:35.960Z,3.13
2023-01-29T15:13:17.821Z,3.18
2023-01-29T15:16:03.124Z,3.22
2023-01-29T15:18:42.608Z,3.25
2023-01-29T15:24:48.885Z,3.11
2023-01-29T15:28:10.708Z,3.01
2023-01-29T15:30:39.224Z,3.02
2023-01-29T15:33:33.033Z,3.11
2023-01-29T15:36:08.002Z,3.11
2023-01-29T15:38:37.070Z,3.12
2023-01-29T15:41:21.636Z,3.25
2023-01-29T15:43:56.845Z,3.25
2023-01-29T15:47:40.155Z,3.24
2023-01-29T15:51:00.123Z,3.23
2023-01-29T15:53:49.347Z,3.34
2023-01-29T15:56:24.721Z,3.22
2023-01-29T15:58:53.141Z,3.23
2023-01-29T16:01:21.917Z,3.17
2023-01-29T16:10:35.479Z,3.25
2023-01-29T16:13:56.328Z,3.28
2023-01-29T16:16:25.890Z,3.26
2023-01-29T16:19:00.457Z,3.15
2023-01-29T16:21:29.290Z,3.21
2023-01-29T16:24:10.954Z,3.17
2023-01-29T16:27:01.152Z,3.17
2023-01-29T16:29:33.925Z,3.20
2023-01-29T16:32:04.086Z,3.21
2023-01-29T16:34:45.434Z,3.23
2023-01-29T16:37:31.560Z,3.31
2023-01-29T16:40:01.220Z,3.40
2023-01-29T16:46:49.350Z,3.27
2023-01-29T16:49:30.215Z,3.28
2023-01-29T16:52:15.926Z,3.28
2023-01-29T16:54:44.095Z,3.29
2023-01-29T16:57:26.489Z,3.28
2023-01-29T16:59:57.624Z,3.26
2023-01-29T17:02:50.980Z,3.23
2023-01-29T17:05:31.345Z,3.07
2023-01-29T17:08:00.650Z,2.94
2023-01-29T17:13:39.518Z,3.01
2023-01-29T17:16:26.022Z,3.10
2023-01-29T17:18:54.076Z,2.99
2023-01-29T17:22:01.198Z,3.03
2023-01-29T17:24:29.601Z,3.14
2023-01-29T17:26:58.074Z,3.17
2023-01-29T17:29:32.643Z,3.26
2023-01-29T17:32:42.874Z,3.30
2023-01-29T17:35:14.694Z,3.36
2023-01-29T17:37:43.781Z,3.32
2023-01-29T17:40:21.860Z,3.24
2023-01-29T17:43:05.506Z,3.19
2023-01-29T17:45:48.572Z,3.19
2023-01-29T17:48:28.382Z,3.28
2023-01-29T17:51:06.183Z,3.38
2023-01-29T17:53:45.184Z,3.40
2023-01-29T17:56:23.881Z,3.37
2023-01-29T17:58:51.956Z,3.35
2023-01-29T18:01:19.956Z,3.28
2023-01-29T18:03:54.766Z,3.29
2023-01-29T18:06:30.038Z,3.24
2023-01-29T18:09:53.513Z,3.36
2023-01-29T18:12:47.795Z,3.42
2023-01-29T18:15:28.905Z,3.36
2023-01-29T18:18:01.394Z,3.34
2023-01-29T18:20:38.951Z,3.35
2023-01-29T18:26:01.585Z,3.36
2023-01-29T18:28:34.596Z,3.39
2023-01-29T18:31:04.283Z,3.37
2023-01-29T18:33:34.453Z,3.44
2023-01-29T18:38:51.259Z,3.36
2023-01-29T18:41:19.395Z,3.44
2023-01-29T18:43:50.448Z,3.49
2023-01-29T18:46:19.189Z,3.32
2023-01-29T18:48:49.144Z,3.31
2023-01-29T18:54:38.149Z,3.35
2023-01-29T18:57:13.570Z,3.40
2023-01-29T18:59:44.208Z,3.40
2023-01-29T19:02:17.582Z,3.47
2023-01-29T19:07:47.407Z,3.55
2023-01-29T19:10:19.002Z,3.56
2023-01-29T19:12:48.713Z,3.57
2023-01-29T19:15:20.798Z,3.58
2023-01-29T19:17:51.165Z,3.60
2023-01-29T19:20:19.330Z,3.60
2023-01-29T19:22:48.727Z,3.66
2023-01-29T19:25:22.134Z,3.66
2023-01-29T19:27:50.142Z,3.54
2023-01-29T19:30:19.765Z,3.54
2023-01-29T19:32:47.818Z,3.55
2023-01-29T19:35:18.140Z,3.38
2023-01-29T19:37:55.578Z,3.36
2023-01-29T19:40:30.296Z,3.37
2023-01-29T19:42:59.086Z,3.27
2023-01-29T19:48:41.380Z,3.38
2023-01-29T19:51:46.268Z,3.41
2023-01-29T19:54:14.454Z,3.40
2023-01-29T19:56:42.692Z,3.30
2023-01-29T19:59:14.722Z,3.25
2023-01-29T20:01:44.904Z,3.12
2023-01-29T20:04:13.047Z,3.24
2023-01-29T20:06:40.962Z,3.34
2023-01-29T20:09:08.939Z,3.33
2023-01-29T20:11:36.867Z,3.37
2023-01-29T20:14:05.090Z,3.40
2023-01-29T20:16:33.870Z,3.44
2023-01-29T20:19:13.231Z,3.53
2023-01-29T20:21:45.839Z,3.56
2023-01-29T20:24:14.928Z,3.46
2023-01-29T20:26:43.568Z,3.51
2023-01-29T20:29:11.991Z,3.47
2023-01-29T20:31:39.892Z,3.55
2023-01-29T20:34:08.100Z,3.59
2023-01-29T20:36:39.877Z,3.47
2023-01-29T20:39:12.134Z,3.50
2023-01-29T20:41:45.764Z,3.52
2023-01-29T20:44:16.362Z,3.61
2023-01-29T20:46:46.322Z,3.68
2023-01-29T20:49:14.653Z,3.60
2023-01-29T20:51:47.280Z,3.53
2023-01-29T20:54:16.037Z,3.46
2023-01-29T20:56:45.251Z,3.47
2023-01-29T20:59:15.927Z,3.51
2023-01-29T21:01:44.595Z,3.50
2023-01-29T21:04:12.633Z,3.59
2023-01-29T21:06:40.479Z,3.64
2023-01-29T21:09:08.669Z,3.69
2023-01-29T21:11:36.670Z,3.74
2023-01-29T21:14:07.270Z,3.65
2023-01-29T21:16:35.469Z,3.70
2023-01-29T21:19:03.939Z,3.72
2023-01-29T21:21:37.472Z,3.63
2023-01-29T21:24:13.325Z,3.63
2023-01-29T21:26:42.143Z,3.72
2023-01-29T21:29:11.657Z,3.70
2023-01-29T21:31:48.885Z,3.75
2023-01-29T21:34:17.978Z,3.82
2023-01-29T21:36:53.442Z,3.95
2023-01-29T21:39:33.489Z,3.97
2023-01-29T21:42:20.289Z,3.89
2023-01-29T21:44:51.677Z,3.83
2023-01-29T21:47:19.700Z,3.80
2023-01-29T21:50:09.025Z,3.80
2023-01-29T21:52:37.326Z,3.82
2023-01-29T21:55:13.609Z,3.76
2023-01-29T22:00:56.901Z,3.82
2023-01-29T22:04:07.786Z,3.88
2023-01-29T22:06:36.155Z,3.93
2023-01-29T22:09:04.103Z,3.90
2023-01-29T22:11:41.956Z,3.88
